DMAD Reservoir




Date Reservoir Capacity (AF) Hourly Avg. Stream Stage (ft) Reservoir Outflow (cfs) Reservoir Gate 1 Height (ft) Reservoir Gate 2 Height (ft) Reservoir Gate 3 Height (ft) Stream Flow (cfs) Stream Conductivity (ppm) Battery Voltage (V) Reservoir Height (ft) Canal Flow (cfs) Canal Height (ft) Canal Flow 2 (ft)
03/01/2019 6,568 0 0.00 0.00 0.00 0.00 0.00 13.47 61.76 0.00 0.00
03/02/2019 6,576 0 0.00 0.00 0.00 0.00 0.00 13.14 61.77 0.00 0.00
03/03/2019 6,568 0 0.00 0.00 0.00 0.00 0.00 12.89 61.76 0.00 0.00
03/04/2019 6,236 0 0.00 0.00 0.00 0.00 0.00 13.51 61.38 0.00 0.00
03/05/2019 5,957 0 0.00 0.00 0.00 0.00 0.00 13.58 61.06 0.00 0.00
03/06/2019 0 0.00 0.00 0.00 0.00 0.00 13.15 76.30 0.00 0.00
03/07/2019 0 0.00 0.00 0.00 0.00 0.00 13.50 73.30 0.00 0.00
03/08/2019 4,187 0 0.00 0.00 0.00 0.00 0.00 13.39 58.86 0.00 0.00
03/09/2019 9,040 0 0.00 0.00 0.00 0.00 0.00 13.50 64.26 0.00 0.00
03/10/2019 0 0.00 0.00 0.00 0.00 0.00 13.57 73.90 0.00 0.00
03/11/2019 0 0.00 0.00 0.00 0.00 0.00 13.55 66.39 0.00 0.00
03/12/2019 9,545 0 0.00 0.00 0.00 0.00 0.00 13.49 64.71 0.00 0.00
03/13/2019 4,276 0 0.00 0.00 0.00 0.00 0.00 13.61 58.98 0.00 0.00
03/14/2019 3,890 0 0.00 0.00 0.00 0.00 0.00 13.63 58.46 0.00 0.00
03/15/2019 3,957 0 0.00 0.00 0.00 0.00 0.00 13.68 58.55 0.00 0.00
03/16/2019 5,975 0 0.00 0.00 0.00 0.00 0.00 13.65 61.08 0.00 0.00
03/17/2019 5,731 0 0.00 0.00 0.00 0.00 0.00 13.63 60.80 0.00 0.00
03/18/2019 5,574 0 0.00 0.00 0.00 0.00 0.00 13.61 60.62 0.00 0.00
03/19/2019 6,760 0 0.00 0.00 0.00 0.00 0.00 13.60 61.98 0.00 0.00
03/20/2019 6,402 0 0.00 0.00 0.00 0.00 0.00 13.59 61.57 0.00 0.00
03/21/2019 4,388 0 0.00 0.00 0.00 0.00 0.00 13.36 59.13 0.00 0.00
03/22/2019 5,019 0 0.00 0.00 0.00 0.00 0.00 13.57 59.98 0.00 0.00
03/23/2019 5,591 0 0.00 0.00 0.00 0.00 0.00 13.52 60.64 0.00 0.00
03/24/2019 0 0.00 0.00 0.00 0.00 0.00 13.56 71.90 0.00 0.00
03/25/2019 0 0.00 0.00 0.00 0.00 0.00 13.62 109.60 0.00 0.00
03/26/2019 0 0.00 0.00 0.00 0.00 0.00 13.56 91.40 0.00 0.00
03/27/2019 0 0.00 0.00 0.00 0.00 0.00 13.57 98.30 0.00 0.00
03/28/2019 0 0.00 0.00 0.00 0.00 0.00 13.51 76.70 0.00 0.00
03/29/2019 0 0.00 0.00 0.00 0.00 0.00 13.66 108.70 0.00 0.00
03/30/2019 0 0.00 0.00 0.00 0.00 0.00 13.68 89.80 0.00 0.00
03/31/2019 0 0.00 0.00 0.00 0.00 0.00 13.67 104.40 0.00 0.00
Average 0 0.00 0.00
Maximum 0 0.00 0.00
Minimum 0 0.00 0.00
Total Volume (AF) 0 0.00 0.00